sensor_id;sensor_type;location;lat;lon;timestamp;pressure;altitude;pressure_sealevel;temperature;humidity
16481;BME280;44634;54.110;12.138;2023-01-26T00:01:20;101953.66;;;1.96;100.00
16481;BME280;44634;54.110;12.138;2023-01-26T00:03:48;101964.72;;;1.52;100.00
16481;BME280;44634;54.110;12.138;2023-01-26T00:06:17;101951.69;;;1.52;100.00
16481;BME280;44634;54.110;12.138;2023-01-26T00:08:48;101955.31;;;1.74;100.00
16481;BME280;44634;54.110;12.138;2023-01-26T00:11:18;101956.50;;;1.37;100.00
16481;BME280;44634;54.110;12.138;2023-01-26T00:13:48;101940.53;;;1.73;100.00
16481;BME280;44634;54.110;12.138;2023-01-26T00:16:18;101944.56;;;2.08;100.00
16481;BME280;44634;54.110;12.138;2023-01-26T00:18:46;101934.53;;;1.44;100.00
16481;BME280;44634;54.110;12.138;2023-01-26T00:21:16;101928.84;;;1.60;100.00
16481;BME280;44634;54.110;12.138;2023-01-26T00:23:45;101929.59;;;1.63;100.00
16481;BME280;44634;54.110;12.138;2023-01-26T00:26:14;101927.53;;;1.98;100.00
16481;BME280;44634;54.110;12.138;2023-01-26T00:28:42;101901.38;;;1.49;100.00
16481;BME280;44634;54.110;12.138;2023-01-26T00:31:11;101899.78;;;1.45;100.00
16481;BME280;44634;54.110;12.138;2023-01-26T00:33:41;101900.91;;;1.63;100.00
16481;BME280;44634;54.110;12.138;2023-01-26T00:36:09;101882.63;;;1.65;100.00
16481;BME280;44634;54.110;12.138;2023-01-26T00:38:37;101889.59;;;1.38;100.00
16481;BME280;44634;54.110;12.138;2023-01-26T00:41:06;101876.78;;;1.57;100.00
16481;BME280;44634;54.110;12.138;2023-01-26T00:43:33;101887.03;;;1.63;100.00
16481;BME280;44634;54.110;12.138;2023-01-26T00:46:01;101882.91;;;1.31;100.00
16481;BME280;44634;54.110;12.138;2023-01-26T00:48:29;101885.41;;;1.59;100.00
16481;BME280;44634;54.110;12.138;2023-01-26T00:50:58;101873.16;;;1.36;100.00
16481;BME280;44634;54.110;12.138;2023-01-26T00:53:26;101860.00;;;1.90;100.00
16481;BME280;44634;54.110;12.138;2023-01-26T00:55:53;101871.47;;;1.08;100.00
16481;BME280;44634;54.110;12.138;2023-01-26T00:58:23;101852.66;;;1.52;100.00
16481;BME280;44634;54.110;12.138;2023-01-26T01:00:52;101854.47;;;0.97;100.00
16481;BME280;44634;54.110;12.138;2023-01-26T01:03:20;101848.06;;;1.60;100.00
16481;BME280;44634;54.110;12.138;2023-01-26T01:05:48;101842.59;;;1.41;100.00
16481;BME280;44634;54.110;12.138;2023-01-26T01:08:17;101838.31;;;1.65;100.00
16481;BME280;44634;54.110;12.138;2023-01-26T01:10:45;101846.34;;;0.79;100.00
16481;BME280;44634;54.110;12.138;2023-01-26T01:13:13;101836.88;;;1.30;100.00
16481;BME280;44634;54.110;12.138;2023-01-26T01:15:40;101848.97;;;1.32;100.00
16481;BME280;44634;54.110;12.138;2023-01-26T01:18:08;101845.94;;;1.44;100.00
16481;BME280;44634;54.110;12.138;2023-01-26T01:20:39;101844.16;;;0.94;100.00
16481;BME280;44634;54.110;12.138;2023-01-26T01:23:07;101839.75;;;1.22;100.00
16481;BME280;44634;54.110;12.138;2023-01-26T01:25:36;101835.97;;;1.06;100.00
16481;BME280;44634;54.110;12.138;2023-01-26T01:28:04;101835.09;;;1.32;100.00
16481;BME280;44634;54.110;12.138;2023-01-26T01:30:32;101840.25;;;1.07;100.00
16481;BME280;44634;54.110;12.138;2023-01-26T01:32:59;101826.84;;;1.44;100.00
16481;BME280;44634;54.110;12.138;2023-01-26T01:35:27;101815.81;;;1.62;100.00
16481;BME280;44634;54.110;12.138;2023-01-26T01:37:55;101816.75;;;1.35;100.00
16481;BME280;44634;54.110;12.138;2023-01-26T01:40:22;101812.22;;;1.40;100.00
16481;BME280;44634;54.110;12.138;2023-01-26T01:42:52;101811.25;;;1.17;100.00
16481;BME280;44634;54.110;12.138;2023-01-26T01:45:40;101810.19;;;1.73;100.00
16481;BME280;44634;54.110;12.138;2023-01-26T01:48:12;101795.22;;;1.55;100.00
16481;BME280;44634;54.110;12.138;2023-01-26T01:50:42;101798.94;;;1.47;100.00
16481;BME280;44634;54.110;12.138;2023-01-26T01:53:14;101800.00;;;1.17;100.00
16481;BME280;44634;54.110;12.138;2023-01-26T01:55:44;101797.88;;;1.78;100.00
16481;BME280;44634;54.110;12.138;2023-01-26T01:58:14;101786.88;;;1.93;100.00
16481;BME280;44634;54.110;12.138;2023-01-26T02:00:41;101791.56;;;2.07;100.00
16481;BME280;44634;54.110;12.138;2023-01-26T02:03:09;101798.16;;;2.17;100.00
16481;BME280;44634;54.110;12.138;2023-01-26T02:05:42;101801.94;;;2.08;100.00
16481;BME280;44634;54.110;12.138;2023-01-26T02:08:13;101802.84;;;1.84;100.00
16481;BME280;44634;54.110;12.138;2023-01-26T02:10:45;101805.81;;;1.50;100.00
16481;BME280;44634;54.110;12.138;2023-01-26T02:13:15;101789.56;;;1.67;100.00
16481;BME280;44634;54.110;12.138;2023-01-26T02:15:45;101785.91;;;2.19;100.00
16481;BME280;44634;54.110;12.138;2023-01-26T02:18:13;101797.06;;;1.76;100.00
16481;BME280;44634;54.110;12.138;2023-01-26T02:20:44;101792.75;;;2.22;100.00
16481;BME280;44634;54.110;12.138;2023-01-26T02:23:25;101792.47;;;1.83;100.00
16481;BME280;44634;54.110;12.138;2023-01-26T02:26:04;101780.16;;;1.63;100.00
16481;BME280;44634;54.110;12.138;2023-01-26T02:28:32;101774.88;;;1.89;100.00
16481;BME280;44634;54.110;12.138;2023-01-26T02:30:59;101763.03;;;2.26;100.00
16481;BME280;44634;54.110;12.138;2023-01-26T02:33:30;101776.72;;;2.31;100.00
16481;BME280;44634;54.110;12.138;2023-01-26T02:35:59;101778.47;;;2.08;100.00
16481;BME280;44634;54.110;12.138;2023-01-26T02:38:32;101776.03;;;1.81;100.00
16481;BME280;44634;54.110;12.138;2023-01-26T02:41:07;101777.56;;;1.86;100.00
16481;BME280;44634;54.110;12.138;2023-01-26T02:43:36;101776.72;;;1.86;100.00
16481;BME280;44634;54.110;12.138;2023-01-26T02:46:03;101784.91;;;1.52;100.00
16481;BME280;44634;54.110;12.138;2023-01-26T02:48:32;101763.50;;;1.42;100.00
16481;BME280;44634;54.110;12.138;2023-01-26T02:51:17;101743.91;;;2.03;100.00
16481;BME280;44634;54.110;12.138;2023-01-26T02:53:45;101753.97;;;1.66;100.00
16481;BME280;44634;54.110;12.138;2023-01-26T02:56:14;101767.81;;;1.43;100.00
16481;BME280;44634;54.110;12.138;2023-01-26T02:58:41;101755.16;;;1.57;100.00
16481;BME280;44634;54.110;12.138;2023-01-26T03:01:08;101753.25;;;1.62;100.00
16481;BME280;44634;54.110;12.138;2023-01-26T03:03:36;101753.06;;;1.67;100.00
16481;BME280;44634;54.110;12.138;2023-01-26T03:06:11;101745.06;;;1.71;100.00
16481;BME280;44634;54.110;12.138;2023-01-26T03:08:39;101753.19;;;1.87;100.00
16481;BME280;44634;54.110;12.138;2023-01-26T03:11:08;101757.34;;;1.93;100.00
16481;BME280;44634;54.110;12.138;2023-01-26T03:13:37;101752.78;;;2.21;100.00
16481;BME280;44634;54.110;12.138;2023-01-26T03:16:06;101754.00;;;2.34;100.00
16481;BME280;44634;54.110;12.138;2023-01-26T03:18:34;101761.19;;;1.83;100.00
16481;BME280;44634;54.110;12.138;2023-01-26T03:21:19;101748.34;;;2.23;100.00
16481;BME280;44634;54.110;12.138;2023-01-26T03:24:09;101749.84;;;2.29;100.00
16481;BME280;44634;54.110;12.138;2023-01-26T03:27:10;101741.66;;;2.16;100.00
16481;BME280;44634;54.110;12.138;2023-01-26T03:29:55;101768.28;;;1.29;100.00
16481;BME280;44634;54.110;12.138;2023-01-26T03:32:23;101745.78;;;1.76;100.00
16481;BME280;44634;54.110;12.138;2023-01-26T03:34:51;101754.66;;;1.94;100.00
16481;BME280;44634;54.110;12.138;2023-01-26T03:37:19;101743.19;;;1.98;100.00
16481;BME280;44634;54.110;12.138;2023-01-26T03:39:48;101744.69;;;2.05;100.00
16481;BME280;44634;54.110;12.138;2023-01-26T03:42:35;101749.28;;;1.99;100.00
16481;BME280;44634;54.110;12.138;2023-01-26T03:45:22;101745.59;;;2.26;100.00
16481;BME280;44634;54.110;12.138;2023-01-26T03:48:08;101750.44;;;2.14;100.00
16481;BME280;44634;54.110;12.138;2023-01-26T03:50:54;101745.53;;;2.06;100.00
16481;BME280;44634;54.110;12.138;2023-01-26T03:53:39;101747.19;;;1.62;100.00
16481;BME280;44634;54.110;12.138;2023-01-26T03:56:25;101744.22;;;1.94;100.00
16481;BME280;44634;54.110;12.138;2023-01-26T03:58:59;101743.66;;;1.86;100.00
16481;BME280;44634;54.110;12.138;2023-01-26T04:01:36;101747.75;;;1.70;100.00
16481;BME280;44634;54.110;12.138;2023-01-26T04:04:06;101734.50;;;2.21;100.00
16481;BME280;44634;54.110;12.138;2023-01-26T04:06:52;101732.97;;;2.59;100.00
16481;BME280;44634;54.110;12.138;2023-01-26T04:09:37;101749.59;;;2.13;100.00
16481;BME280;44634;54.110;12.138;2023-01-26T04:12:06;101755.59;;;2.15;100.00
16481;BME280;44634;54.110;12.138;2023-01-26T04:14:35;101743.09;;;2.47;100.00
16481;BME280;44634;54.110;12.138;2023-01-26T04:17:22;101752.25;;;2.35;100.00
16481;BME280;44634;54.110;12.138;2023-01-26T04:20:08;101743.84;;;2.27;100.00
16481;BME280;44634;54.110;12.138;2023-01-26T04:22:54;101733.28;;;2.08;100.00
16481;BME280;44634;54.110;12.138;2023-01-26T04:25:22;101736.50;;;2.15;100.00
16481;BME280;44634;54.110;12.138;2023-01-26T04:27:50;101719.66;;;1.78;100.00
16481;BME280;44634;54.110;12.138;2023-01-26T04:30:18;101730.50;;;1.42;100.00
16481;BME280;44634;54.110;12.138;2023-01-26T04:32:49;101725.47;;;1.85;100.00
16481;BME280;44634;54.110;12.138;2023-01-26T04:35:18;101719.25;;;2.11;100.00
16481;BME280;44634;54.110;12.138;2023-01-26T04:37:46;101712.66;;;2.24;100.00
16481;BME280;44634;54.110;12.138;2023-01-26T04:40:14;101714.63;;;2.19;100.00
16481;BME280;44634;54.110;12.138;2023-01-26T04:42:42;101705.09;;;2.60;100.00
16481;BME280;44634;54.110;12.138;2023-01-26T04:45:10;101698.28;;;2.14;100.00
16481;BME280;44634;54.110;12.138;2023-01-26T04:47:38;101699.19;;;2.34;100.00
16481;BME280;44634;54.110;12.138;2023-01-26T04:50:09;101708.41;;;2.65;100.00
16481;BME280;44634;54.110;12.138;2023-01-26T04:52:37;101717.56;;;2.09;100.00
16481;BME280;44634;54.110;12.138;2023-01-26T04:55:05;101720.56;;;1.99;100.00
16481;BME280;44634;54.110;12.138;2023-01-26T04:57:33;101703.34;;;2.18;100.00
16481;BME280;44634;54.110;12.138;2023-01-26T05:00:01;101706.59;;;2.23;100.00
16481;BME280;44634;54.110;12.138;2023-01-26T05:02:29;101701.78;;;1.91;100.00
16481;BME280;44634;54.110;12.138;2023-01-26T05:04:57;101688.16;;;2.06;100.00
16481;BME280;44634;54.110;12.138;2023-01-26T05:07:27;101690.22;;;2.20;100.00
16481;BME280;44634;54.110;12.138;2023-01-26T05:09:54;101685.69;;;2.45;100.00
16481;BME280;44634;54.110;12.138;2023-01-26T05:12:22;101701.06;;;2.31;100.00
16481;BME280;44634;54.110;12.138;2023-01-26T05:15:04;101703.44;;;2.15;100.00
16481;BME280;44634;54.110;12.138;2023-01-26T05:17:32;101699.97;;;2.15;100.00
16481;BME280;44634;54.110;12.138;2023-01-26T05:20:01;101691.53;;;2.30;100.00
16481;BME280;44634;54.110;12.138;2023-01-26T05:22:30;101688.03;;;2.09;100.00
16481;BME280;44634;54.110;12.138;2023-01-26T05:24:58;101701.03;;;1.87;100.00
16481;BME280;44634;54.110;12.138;2023-01-26T05:27:26;101695.63;;;2.37;100.00
16481;BME280;44634;54.110;12.138;2023-01-26T05:29:54;101697.19;;;2.19;100.00
16481;BME280;44634;54.110;12.138;2023-01-26T05:32:25;101696.25;;;2.42;100.00
16481;BME280;44634;54.110;12.138;2023-01-26T05:34:53;101697.34;;;2.15;100.00
16481;BME280;44634;54.110;12.138;2023-01-26T05:37:23;101687.28;;;2.49;100.00
16481;BME280;44634;54.110;12.138;2023-01-26T05:39:52;101682.84;;;2.29;100.00
16481;BME280;44634;54.110;12.138;2023-01-26T05:42:21;101687.59;;;1.98;100.00
16481;BME280;44634;54.110;12.138;2023-01-26T05:44:49;101694.34;;;2.03;100.00
16481;BME280;44634;54.110;12.138;2023-01-26T05:47:17;101695.66;;;2.57;100.00
16481;BME280;44634;54.110;12.138;2023-01-26T05:49:45;101694.53;;;2.21;100.00
16481;BME280;44634;54.110;12.138;2023-01-26T05:52:15;101700.75;;;2.38;100.00
16481;BME280;44634;54.110;12.138;2023-01-26T05:54:43;101689.97;;;2.26;100.00
16481;BME280;44634;54.110;12.138;2023-01-26T05:57:12;101693.88;;;2.58;100.00
16481;BME280;44634;54.110;12.138;2023-01-26T05:59:42;101699.75;;;2.21;100.00
16481;BME280;44634;54.110;12.138;2023-01-26T06:02:10;101694.81;;;2.35;100.00
16481;BME280;44634;54.110;12.138;2023-01-26T06:04:38;101694.63;;;2.61;100.00
16481;BME280;44634;54.110;12.138;2023-01-26T06:07:06;101697.44;;;2.77;100.00
16481;BME280;44634;54.110;12.138;2023-01-26T06:09:34;101698.72;;;2.25;100.00
16481;BME280;44634;54.110;12.138;2023-01-26T06:12:02;101694.63;;;2.39;100.00
16481;BME280;44634;54.110;12.138;2023-01-26T06:14:32;101703.97;;;2.45;100.00
16481;BME280;44634;54.110;12.138;2023-01-26T06:16:59;101701.28;;;2.68;100.00
16481;BME280;44634;54.110;12.138;2023-01-26T06:19:27;101707.72;;;2.60;100.00
16481;BME280;44634;54.110;12.138;2023-01-26T06:21:55;101698.94;;;2.62;100.00
16481;BME280;44634;54.110;12.138;2023-01-26T06:24:23;101705.84;;;2.42;100.00
16481;BME280;44634;54.110;12.138;2023-01-26T06:26:50;101704.09;;;2.84;100.00
16481;BME280;44634;54.110;12.138;2023-01-26T06:29:18;101709.06;;;3.11;100.00
16481;BME280;44634;54.110;12.138;2023-01-26T06:31:47;101718.16;;;2.60;100.00
16481;BME280;44634;54.110;12.138;2023-01-26T06:34:15;101720.44;;;2.02;100.00
16481;BME280;44634;54.110;12.138;2023-01-26T06:36:43;101716.78;;;2.93;100.00
16481;BME280;44634;54.110;12.138;2023-01-26T06:39:11;101718.84;;;2.85;100.00
16481;BME280;44634;54.110;12.138;2023-01-26T06:41:41;101716.97;;;2.47;100.00
16481;BME280;44634;54.110;12.138;2023-01-26T06:44:10;101719.88;;;2.61;100.00
16481;BME280;44634;54.110;12.138;2023-01-26T06:46:38;101725.69;;;2.46;100.00
16481;BME280;44634;54.110;12.138;2023-01-26T06:49:08;101734.03;;;2.55;100.00
16481;BME280;44634;54.110;12.138;2023-01-26T06:51:51;101730.78;;;2.71;100.00
16481;BME280;44634;54.110;12.138;2023-01-26T06:54:21;101724.66;;;2.28;100.00
16481;BME280;44634;54.110;12.138;2023-01-26T06:56:49;101716.59;;;2.98;100.00
16481;BME280;44634;54.110;12.138;2023-01-26T06:59:17;101720.97;;;2.55;100.00
16481;BME280;44634;54.110;12.138;2023-01-26T07:01:45;101723.94;;;2.68;100.00
16481;BME280;44634;54.110;12.138;2023-01-26T07:04:16;101711.94;;;2.42;100.00
16481;BME280;44634;54.110;12.138;2023-01-26T07:06:44;101715.84;;;2.74;100.00
16481;BME280;44634;54.110;12.138;2023-01-26T07:09:12;101725.91;;;2.83;100.00
16481;BME280;44634;54.110;12.138;2023-01-26T07:11:39;101716.06;;;2.90;100.00
16481;BME280;44634;54.110;12.138;2023-01-26T07:14:07;101731.69;;;2.69;100.00
16481;BME280;44634;54.110;12.138;2023-01-26T07:16:35;101722.59;;;3.20;100.00
16481;BME280;44634;54.110;12.138;2023-01-26T07:19:03;101730.41;;;3.00;100.00
16481;BME280;44634;54.110;12.138;2023-01-26T07:21:32;101727.94;;;3.17;100.00
16481;BME280;44634;54.110;12.138;2023-01-26T07:24:00;101746.22;;;2.77;100.00
16481;BME280;44634;54.110;12.138;2023-01-26T07:26:28;101739.38;;;2.94;100.00
16481;BME280;44634;54.110;12.138;2023-01-26T07:28:56;101724.13;;;3.45;100.00
16481;BME280;44634;54.110;12.138;2023-01-26T07:31:24;101733.53;;;2.67;100.00
16481;BME280;44634;54.110;12.138;2023-01-26T07:33:52;101724.75;;;3.11;100.00
16481;BME280;44634;54.110;12.138;2023-01-26T07:36:20;101734.50;;;2.43;100.00
16481;BME280;44634;54.110;12.138;2023-01-26T07:38:49;101726.06;;;3.21;100.00
16481;BME280;44634;54.110;12.138;2023-01-26T07:41:17;101734.00;;;2.77;100.00
16481;BME280;44634;54.110;12.138;2023-01-26T07:43:45;101730.00;;;2.89;100.00
16481;BME280;44634;54.110;12.138;2023-01-26T07:46:12;101734.06;;;2.76;100.00
16481;BME280;44634;54.110;12.138;2023-01-26T07:48:40;101715.66;;;2.79;100.00
16481;BME280;44634;54.110;12.138;2023-01-26T07:51:09;101730.38;;;2.59;100.00
16481;BME280;44634;54.110;12.138;2023-01-26T07:53:37;101731.28;;;3.01;100.00
16481;BME280;44634;54.110;12.138;2023-01-26T07:56:10;101734.72;;;3.42;100.00
16481;BME280;44634;54.110;12.138;2023-01-26T07:58:38;101748.19;;;2.92;100.00
16481;BME280;44634;54.110;12.138;2023-01-26T08:01:08;101735.84;;;3.16;100.00
16481;BME280;44634;54.110;12.138;2023-01-26T08:03:37;101749.63;;;2.79;100.00
16481;BME280;44634;54.110;12.138;2023-01-26T08:06:07;101738.13;;;3.44;100.00
16481;BME280;44634;54.110;12.138;2023-01-26T08:08:39;101746.63;;;3.08;100.00
16481;BME280;44634;54.110;12.138;2023-01-26T08:11:09;101760.41;;;3.12;100.00
16481;BME280;44634;54.110;12.138;2023-01-26T08:13:37;101762.38;;;3.27;100.00
16481;BME280;44634;54.110;12.138;2023-01-26T08:16:07;101760.34;;;3.54;100.00
16481;BME280;44634;54.110;12.138;2023-01-26T08:18:37;101782.03;;;3.15;100.00
16481;BME280;44634;54.110;12.138;2023-01-26T08:21:05;101781.09;;;3.77;100.00
16481;BME280;44634;54.110;12.138;2023-01-26T08:23:33;101790.34;;;3.45;100.00
16481;BME280;44634;54.110;12.138;2023-01-26T08:26:02;101793.38;;;3.36;100.00
16481;BME280;44634;54.110;12.138;2023-01-26T08:28:32;101795.66;;;3.02;100.00
16481;BME280;44634;54.110;12.138;2023-01-26T08:31:03;101790.34;;;3.25;100.00
16481;BME280;44634;54.110;12.138;2023-01-26T08:33:31;101789.50;;;3.04;100.00
16481;BME280;44634;54.110;12.138;2023-01-26T08:36:00;101793.09;;;2.80;100.00
16481;BME280;44634;54.110;12.138;2023-01-26T08:38:29;101762.25;;;3.10;100.00
16481;BME280;44634;54.110;12.138;2023-01-26T08:40:57;101782.22;;;3.31;100.00
16481;BME280;44634;54.110;12.138;2023-01-26T08:43:25;101781.25;;;3.13;100.00
16481;BME280;44634;54.110;12.138;2023-01-26T08:45:54;101792.69;;;3.31;100.00
16481;BME280;44634;54.110;12.138;2023-01-26T08:48:22;101792.28;;;3.61;100.00
16481;BME280;44634;54.110;12.138;2023-01-26T08:50:52;101793.22;;;3.39;100.00
16481;BME280;44634;54.110;12.138;2023-01-26T08:53:21;101796.94;;;3.54;100.00
16481;BME280;44634;54.110;12.138;2023-01-26T08:55:49;101792.41;;;3.57;100.00
16481;BME280;44634;54.110;12.138;2023-01-26T08:58:17;101791.16;;;3.47;100.00
16481;BME280;44634;54.110;12.138;2023-01-26T09:00:45;101793.03;;;3.64;100.00
16481;BME280;44634;54.110;12.138;2023-01-26T09:03:15;101790.00;;;3.12;100.00
16481;BME280;44634;54.110;12.138;2023-01-26T09:05:43;101796.88;;;3.55;100.00
16481;BME280;44634;54.110;12.138;2023-01-26T09:08:11;101803.19;;;3.09;100.00
16481;BME280;44634;54.110;12.138;2023-01-26T09:10:39;101766.97;;;3.22;100.00
16481;BME280;44634;54.110;12.138;2023-01-26T09:13:08;101771.19;;;3.24;100.00
16481;BME280;44634;54.110;12.138;2023-01-26T09:15:36;101769.63;;;3.41;100.00
16481;BME280;44634;54.110;12.138;2023-01-26T09:18:04;101784.25;;;3.45;100.00
16481;BME280;44634;54.110;12.138;2023-01-26T09:20:34;101791.41;;;3.80;100.00
16481;BME280;44634;54.110;12.138;2023-01-26T09:23:02;101788.44;;;3.69;100.00
16481;BME280;44634;54.110;12.138;2023-01-26T09:25:30;101797.81;;;3.34;100.00
16481;BME280;44634;54.110;12.138;2023-01-26T09:27:57;101792.56;;;3.14;100.00
16481;BME280;44634;54.110;12.138;2023-01-26T09:30:25;101784.06;;;3.49;100.00
16481;BME280;44634;54.110;12.138;2023-01-26T09:32:57;101763.47;;;3.42;100.00
16481;BME280;44634;54.110;12.138;2023-01-26T09:35:24;101761.78;;;3.41;100.00
16481;BME280;44634;54.110;12.138;2023-01-26T09:37:54;101748.97;;;3.55;100.00
16481;BME280;44634;54.110;12.138;2023-01-26T09:40:28;101771.72;;;3.92;100.00
16481;BME280;44634;54.110;12.138;2023-01-26T09:43:06;101774.47;;;3.50;100.00
16481;BME280;44634;54.110;12.138;2023-01-26T09:45:45;101773.91;;;4.01;100.00
16481;BME280;44634;54.110;12.138;2023-01-26T09:48:21;101776.94;;;3.92;100.00
16481;BME280;44634;54.110;12.138;2023-01-26T09:50:56;101774.13;;;4.34;100.00
16481;BME280;44634;54.110;12.138;2023-01-26T09:53:35;101778.06;;;4.43;100.00
16481;BME280;44634;54.110;12.138;2023-01-26T09:56:11;101788.31;;;3.52;100.00
16481;BME280;44634;54.110;12.138;2023-01-26T09:58:44;101777.94;;;4.08;100.00
16481;BME280;44634;54.110;12.138;2023-01-26T10:01:17;101753.66;;;3.86;100.00
16481;BME280;44634;54.110;12.138;2023-01-26T10:03:52;101761.88;;;3.97;100.00
16481;BME280;44634;54.110;12.138;2023-01-26T10:06:22;101761.31;;;4.09;100.00
16481;BME280;44634;54.110;12.138;2023-01-26T10:08:54;101765.91;;;4.23;100.00
16481;BME280;44634;54.110;12.138;2023-01-26T10:11:26;101776.94;;;4.11;100.00
16481;BME280;44634;54.110;12.138;2023-01-26T10:14:00;101769.94;;;3.13;100.00
16481;BME280;44634;54.110;12.138;2023-01-26T10:16:31;101726.19;;;3.77;100.00
16481;BME280;44634;54.110;12.138;2023-01-26T10:19:02;101734.63;;;3.64;100.00
16481;BME280;44634;54.110;12.138;2023-01-26T10:21:35;101730.97;;;4.24;100.00
16481;BME280;44634;54.110;12.138;2023-01-26T10:24:08;101738.25;;;4.17;100.00
16481;BME280;44634;54.110;12.138;2023-01-26T10:26:38;101730.47;;;4.16;100.00
16481;BME280;44634;54.110;12.138;2023-01-26T10:29:10;101735.47;;;4.39;100.00
16481;BME280;44634;54.110;12.138;2023-01-26T10:31:41;101747.59;;;4.23;100.00
16481;BME280;44634;54.110;12.138;2023-01-26T10:34:12;101746.31;;;4.13;100.00
16481;BME280;44634;54.110;12.138;2023-01-26T10:36:43;101732.69;;;4.42;100.00
16481;BME280;44634;54.110;12.138;2023-01-26T10:39:14;101741.81;;;3.98;100.00
16481;BME280;44634;54.110;12.138;2023-01-26T10:41:56;101738.88;;;4.41;100.00
16481;BME280;44634;54.110;12.138;2023-01-26T10:44:30;101736.75;;;4.31;100.00
16481;BME280;44634;54.110;12.138;2023-01-26T10:47:04;101746.56;;;4.44;100.00
16481;BME280;44634;54.110;12.138;2023-01-26T10:49:32;101735.53;;;4.74;100.00
16481;BME280;44634;54.110;12.138;2023-01-26T10:52:05;101727.75;;;4.90;100.00
16481;BME280;44634;54.110;12.138;2023-01-26T10:54:35;101740.44;;;4.63;100.00
16481;BME280;44634;54.110;12.138;2023-01-26T10:57:14;101738.63;;;4.99;100.00
16481;BME280;44634;54.110;12.138;2023-01-26T10:59:50;101736.84;;;4.65;100.00
16481;BME280;44634;54.110;12.138;2023-01-26T11:02:23;101746.34;;;4.85;100.00
16481;BME280;44634;54.110;12.138;2023-01-26T11:05:20;101751.50;;;5.38;100.00
16481;BME280;44634;54.110;12.138;2023-01-26T11:07:49;101766.13;;;4.73;100.00
16481;BME280;44634;54.110;12.138;2023-01-26T11:10:26;101763.66;;;4.15;100.00
16481;BME280;44634;54.110;12.138;2023-01-26T11:13:12;101746.50;;;4.82;100.00
16481;BME280;44634;54.110;12.138;2023-01-26T11:15:43;101734.72;;;5.08;100.00
16481;BME280;44634;54.110;12.138;2023-01-26T11:18:30;101742.28;;;4.61;100.00
16481;BME280;44634;54.110;12.138;2023-01-26T11:21:02;101726.28;;;5.01;100.00
16481;BME280;44634;54.110;12.138;2023-01-26T11:23:47;101734.44;;;4.61;100.00
16481;BME280;44634;54.110;12.138;2023-01-26T11:26:36;101698.25;;;4.86;100.00
16481;BME280;44634;54.110;12.138;2023-01-26T11:29:30;101703.34;;;5.06;100.00
16481;BME280;44634;54.110;12.138;2023-01-26T11:32:11;101723.91;;;4.97;100.00
16481;BME280;44634;54.110;12.138;2023-01-26T11:34:49;101728.31;;;4.43;100.00
16481;BME280;44634;54.110;12.138;2023-01-26T11:37:38;101695.53;;;4.53;100.00
16481;BME280;44634;54.110;12.138;2023-01-26T11:40:18;101674.88;;;4.11;100.00
16481;BME280;44634;54.110;12.138;2023-01-26T11:43:00;101657.88;;;4.56;100.00
16481;BME280;44634;54.110;12.138;2023-01-26T11:45:35;101658.88;;;4.70;100.00
16481;BME280;44634;54.110;12.138;2023-01-26T11:48:18;101678.06;;;4.71;100.00
16481;BME280;44634;54.110;12.138;2023-01-26T11:50:54;101658.16;;;5.01;100.00
16481;BME280;44634;54.110;12.138;2023-01-26T11:53:45;101659.47;;;5.10;100.00
16481;BME280;44634;54.110;12.138;2023-01-26T11:56:29;101686.16;;;4.66;100.00
16481;BME280;44634;54.110;12.138;2023-01-26T11:59:10;101661.97;;;5.29;100.00
16481;BME280;44634;54.110;12.138;2023-01-26T12:01:42;101667.13;;;5.30;100.00
16481;BME280;44634;54.110;12.138;2023-01-26T12:04:17;101661.78;;;5.32;100.00
16481;BME280;44634;54.110;12.138;2023-01-26T12:06:47;101660.25;;;5.28;100.00
16481;BME280;44634;54.110;12.138;2023-01-26T12:09:22;101652.16;;;5.32;100.00
16481;BME280;44634;54.110;12.138;2023-01-26T12:12:01;101652.53;;;5.58;100.00
16481;BME280;44634;54.110;12.138;2023-01-26T12:14:37;101672.56;;;5.10;100.00
16481;BME280;44634;54.110;12.138;2023-01-26T12:17:30;101675.63;;;5.18;100.00
16481;BME280;44634;54.110;12.138;2023-01-26T12:20:05;101640.41;;;5.40;100.00
16481;BME280;44634;54.110;12.138;2023-01-26T12:22:41;101634.78;;;5.14;100.00
16481;BME280;44634;54.110;12.138;2023-01-26T12:25:22;101616.72;;;5.25;100.00
16481;BME280;44634;54.110;12.138;2023-01-26T12:27:56;101615.09;;;4.72;100.00
16481;BME280;44634;54.110;12.138;2023-01-26T12:30:32;101599.00;;;5.13;100.00
16481;BME280;44634;54.110;12.138;2023-01-26T12:33:01;101612.44;;;5.72;100.00
16481;BME280;44634;54.110;12.138;2023-01-26T12:35:45;101611.41;;;5.43;100.00
16481;BME280;44634;54.110;12.138;2023-01-26T12:38:17;101641.31;;;5.05;100.00
16481;BME280;44634;54.110;12.138;2023-01-26T12:40:57;101634.19;;;5.89;100.00
16481;BME280;44634;54.110;12.138;2023-01-26T12:43:41;101644.38;;;5.31;100.00
16481;BME280;44634;54.110;12.138;2023-01-26T12:46:13;101641.75;;;5.47;100.00
16481;BME280;44634;54.110;12.138;2023-01-26T12:48:44;101642.81;;;5.60;100.00
16481;BME280;44634;54.110;12.138;2023-01-26T12:51:19;101630.72;;;5.73;100.00
16481;BME280;44634;54.110;12.138;2023-01-26T12:53:53;101628.84;;;5.75;100.00
16481;BME280;44634;54.110;12.138;2023-01-26T12:56:28;101625.22;;;5.13;100.00
16481;BME280;44634;54.110;12.138;2023-01-26T12:58:58;101611.84;;;5.98;100.00
16481;BME280;44634;54.110;12.138;2023-01-26T13:01:38;101610.84;;;5.20;100.00
16481;BME280;44634;54.110;12.138;2023-01-26T13:04:08;101594.16;;;5.70;100.00